EDHK

Kiel-Holtenau Airport

Kiel, Germany
METAR EDHK 181250Z 21007KT 8000 OVC008 05/04 Q1021
Observed Flight Rules
Dec-18 @ 12:50 UTC (19 minutes ago) Instrument Flight Rules
Wind Visibility Clouds
210° at 7 knots 7,998 meters
  • Overcast at 800' AGL
Temperatures Readings
Current 5°C / 41°F
Dewpoint 4°C / 39°F
Humidity 93%
Altimeter 30.15" Hg
Pressure 1021 hPa
Elevation 31
METAR EDHK 181250Z 21007KT 8000 OVC008 05/04 Q1021
Observed Flight Rules
Dec-18 @ 12:50 UTC
(19 minutes ago)
IFR
Wind Visibility
210° at 7 knots 7,998 meters
Clouds
  • Overcast at 800' AGL
Temperature Dewpoint
5°C / 41°F 4°C / 39°F
Humidity Altimeter Pressure
93% 30.15" Hg 1021 hPa